Edinburgh, United Kingdom

5:25 PM GMT on February 10, 2016 (GMT +0000)
Inverleith, Edinburgh | | Change Station
CLOSE
Current Station
Personal Weather Station
Location: Edinburgh,
Elevation: 92 ft
Nearby Weather Stations

Elev 92 ft 55.97 °N, 3.20 °W | Updated 8 seconds ago

Scattered Clouds
Scattered Clouds
41.9 °F
Feels Like 42 °F
N
1.3
Wind Variable Wind from SSW
Gusts 2.5 mph

Today
High -- | Low -- °F
--% Chance of Precip.
Yesterday
High -- | Low -- °F
Precip. -- in
Pressure 29.44 in
Visibility 6.2 miles
Clouds Scattered Clouds 4400 ft
Windchill 42 °F
Dew Point 31 °F
Humidity 64%
Rainfall 0.00 in
Snow Depth Not available.
7:50 AM 5:04 PM
Waxing Crescent, 6% visible
METAR EGPH 101720Z AUTO 25007KT 9999 SCT044 04/M00 Q0997
Pressure 29.44 in
Visibility 6.2 miles
Clouds Scattered Clouds 4400 ft
Windchill 42 °F
Dew Point 31 °F
Humidity 64%
Rainfall 0.00 in
Snow Depth Not available.
7:50 AM 5:04 PM
Waxing Crescent, 6% visible
METAR EGPH 101720Z AUTO 25007KT 9999 SCT044 04/M00 Q0997

10-Day Weather Forecast

Almanac

Astronomy

Feb. 10, 2016 Rise Set
Actual Time
Civil Twilight
Nautical Twilight
Astronomical Twilight
Moon
Length of Visible Light
Length of Day
Tomorrow will be .
, % of the Moon is Illuminated

Today's Extremes

Country Highs Country Lows

Community

WunderPhotos

Upload Photos

1,891,895 photos uploaded!

WunderBlog® & News

Nearby

Air Quality

  Air Quality AQ Index Pollutant
Not available.

Snow Depth

Station Depth Elevation

Earthquake Activity

City Distance Mag. Time & Date
Minimum magnitude displayed is 2.5.

Coastal Water Temperatures

Place Temperature

Stations

Nearby Weather Stations

Station Location Temp. Windchill Dew Point Humidity Wind Precip. Elev Updated Type